sensor_id;sensor_type;location;lat;lon;timestamp;temperature;humidity
1704;DHT22;849;48.780;9.216;2024-02-14T00:01:42;6.70;99.90
1704;DHT22;849;48.780;9.216;2024-02-14T00:04:27;6.70;99.90
1704;DHT22;849;48.780;9.216;2024-02-14T00:07:11;6.70;99.90
1704;DHT22;849;48.780;9.216;2024-02-14T00:09:55;6.60;99.90
1704;DHT22;849;48.780;9.216;2024-02-14T00:12:39;6.60;99.90
1704;DHT22;849;48.780;9.216;2024-02-14T00:15:23;6.60;99.90
1704;DHT22;849;48.780;9.216;2024-02-14T00:18:09;6.60;99.90
1704;DHT22;849;48.780;9.216;2024-02-14T00:20:54;6.60;99.90
1704;DHT22;849;48.780;9.216;2024-02-14T00:23:38;6.60;99.90
1704;DHT22;849;48.780;9.216;2024-02-14T00:26:22;6.50;99.90
1704;DHT22;849;48.780;9.216;2024-02-14T00:29:06;6.50;99.90
1704;DHT22;849;48.780;9.216;2024-02-14T00:31:51;6.50;99.90
1704;DHT22;849;48.780;9.216;2024-02-14T00:34:35;6.60;99.90
1704;DHT22;849;48.780;9.216;2024-02-14T00:37:19;6.60;99.90
1704;DHT22;849;48.780;9.216;2024-02-14T00:40:04;6.50;99.90
1704;DHT22;849;48.780;9.216;2024-02-14T00:42:48;6.60;99.90
1704;DHT22;849;48.780;9.216;2024-02-14T00:45:32;6.60;99.90
1704;DHT22;849;48.780;9.216;2024-02-14T00:48:17;6.60;99.90
1704;DHT22;849;48.780;9.216;2024-02-14T00:51:01;6.60;99.90
1704;DHT22;849;48.780;9.216;2024-02-14T00:53:45;6.70;99.90
1704;DHT22;849;48.780;9.216;2024-02-14T00:56:28;6.80;99.90
1704;DHT22;849;48.780;9.216;2024-02-14T00:59:12;6.80;99.90
1704;DHT22;849;48.780;9.216;2024-02-14T01:01:56;6.90;99.90
1704;DHT22;849;48.780;9.216;2024-02-14T01:04:40;6.90;99.90
1704;DHT22;849;48.780;9.216;2024-02-14T01:07:24;7.00;99.90
1704;DHT22;849;48.780;9.216;2024-02-14T01:10:09;7.00;99.90
1704;DHT22;849;48.780;9.216;2024-02-14T01:12:53;7.10;99.90
1704;DHT22;849;48.780;9.216;2024-02-14T01:15:37;7.10;99.90
1704;DHT22;849;48.780;9.216;2024-02-14T01:18:21;7.00;99.90
1704;DHT22;849;48.780;9.216;2024-02-14T01:21:05;7.00;99.90
1704;DHT22;849;48.780;9.216;2024-02-14T01:23:50;7.00;99.90
1704;DHT22;849;48.780;9.216;2024-02-14T01:26:35;7.10;99.90
1704;DHT22;849;48.780;9.216;2024-02-14T01:29:19;7.10;99.90
1704;DHT22;849;48.780;9.216;2024-02-14T01:32:03;7.20;99.90
1704;DHT22;849;48.780;9.216;2024-02-14T01:34:48;7.20;99.90
1704;DHT22;849;48.780;9.216;2024-02-14T01:37:32;7.30;99.90
1704;DHT22;849;48.780;9.216;2024-02-14T01:40:17;7.30;99.90
1704;DHT22;849;48.780;9.216;2024-02-14T01:43:01;7.40;99.90
1704;DHT22;849;48.780;9.216;2024-02-14T01:45:45;7.40;99.90
1704;DHT22;849;48.780;9.216;2024-02-14T01:48:29;7.40;99.90
1704;DHT22;849;48.780;9.216;2024-02-14T01:51:13;7.40;99.90
1704;DHT22;849;48.780;9.216;2024-02-14T01:54:02;7.50;99.90
1704;DHT22;849;48.780;9.216;2024-02-14T01:56:47;7.50;99.90
1704;DHT22;849;48.780;9.216;2024-02-14T01:59:32;7.50;99.90
1704;DHT22;849;48.780;9.216;2024-02-14T02:02:19;7.50;99.90
1704;DHT22;849;48.780;9.216;2024-02-14T02:05:03;7.60;99.90
1704;DHT22;849;48.780;9.216;2024-02-14T02:07:48;7.60;99.90
1704;DHT22;849;48.780;9.216;2024-02-14T02:10:33;7.70;99.90
1704;DHT22;849;48.780;9.216;2024-02-14T02:13:17;7.70;99.90
1704;DHT22;849;48.780;9.216;2024-02-14T02:16:02;7.70;99.90
1704;DHT22;849;48.780;9.216;2024-02-14T02:18:49;7.70;99.90
1704;DHT22;849;48.780;9.216;2024-02-14T02:21:34;7.70;99.90
1704;DHT22;849;48.780;9.216;2024-02-14T02:24:18;7.70;99.90
1704;DHT22;849;48.780;9.216;2024-02-14T02:27:03;7.70;99.90
1704;DHT22;849;48.780;9.216;2024-02-14T02:29:48;7.70;99.90
1704;DHT22;849;48.780;9.216;2024-02-14T02:32:32;7.70;99.90
1704;DHT22;849;48.780;9.216;2024-02-14T02:35:17;7.80;99.90
1704;DHT22;849;48.780;9.216;2024-02-14T02:38:03;7.80;99.90
1704;DHT22;849;48.780;9.216;2024-02-14T02:40:47;7.80;99.90
1704;DHT22;849;48.780;9.216;2024-02-14T02:43:32;7.80;99.90
1704;DHT22;849;48.780;9.216;2024-02-14T02:46:17;7.90;99.90
1704;DHT22;849;48.780;9.216;2024-02-14T02:49:01;7.90;99.90
1704;DHT22;849;48.780;9.216;2024-02-14T02:51:46;7.90;99.90
1704;DHT22;849;48.780;9.216;2024-02-14T02:54:30;7.90;99.90
1704;DHT22;849;48.780;9.216;2024-02-14T02:57:15;7.90;99.90
1704;DHT22;849;48.780;9.216;2024-02-14T02:59:59;7.90;99.90
1704;DHT22;849;48.780;9.216;2024-02-14T03:02:43;7.90;99.90
1704;DHT22;849;48.780;9.216;2024-02-14T03:05:28;7.80;99.90
1704;DHT22;849;48.780;9.216;2024-02-14T03:08:15;7.80;99.90
1704;DHT22;849;48.780;9.216;2024-02-14T03:11:05;7.80;99.90
1704;DHT22;849;48.780;9.216;2024-02-14T03:13:49;7.80;99.90
1704;DHT22;849;48.780;9.216;2024-02-14T03:16:34;7.70;99.90
1704;DHT22;849;48.780;9.216;2024-02-14T03:19:18;7.70;99.90
1704;DHT22;849;48.780;9.216;2024-02-14T03:22:02;7.70;99.90
1704;DHT22;849;48.780;9.216;2024-02-14T03:24:49;7.60;99.90
1704;DHT22;849;48.780;9.216;2024-02-14T03:27:33;7.70;99.90
1704;DHT22;849;48.780;9.216;2024-02-14T03:30:19;7.60;99.90
1704;DHT22;849;48.780;9.216;2024-02-14T03:33:04;7.60;99.90
1704;DHT22;849;48.780;9.216;2024-02-14T03:35:49;7.50;99.90
1704;DHT22;849;48.780;9.216;2024-02-14T03:38:33;7.50;99.90
1704;DHT22;849;48.780;9.216;2024-02-14T03:41:17;7.40;99.90
1704;DHT22;849;48.780;9.216;2024-02-14T03:44:01;7.40;99.90
1704;DHT22;849;48.780;9.216;2024-02-14T03:46:47;7.40;99.90
1704;DHT22;849;48.780;9.216;2024-02-14T03:49:32;7.40;99.90
1704;DHT22;849;48.780;9.216;2024-02-14T03:52:16;7.40;99.90
1704;DHT22;849;48.780;9.216;2024-02-14T03:55:00;7.40;99.90
1704;DHT22;849;48.780;9.216;2024-02-14T03:57:45;7.40;99.90
1704;DHT22;849;48.780;9.216;2024-02-14T04:00:30;7.40;99.90
1704;DHT22;849;48.780;9.216;2024-02-14T04:03:15;7.40;99.90
1704;DHT22;849;48.780;9.216;2024-02-14T04:05:59;7.50;99.90
1704;DHT22;849;48.780;9.216;2024-02-14T04:08:43;7.50;99.90
1704;DHT22;849;48.780;9.216;2024-02-14T04:11:27;7.50;99.90
1704;DHT22;849;48.780;9.216;2024-02-14T04:14:11;7.50;99.90
1704;DHT22;849;48.780;9.216;2024-02-14T04:16:56;7.50;99.90
1704;DHT22;849;48.780;9.216;2024-02-14T04:19:40;7.50;99.90
1704;DHT22;849;48.780;9.216;2024-02-14T04:22:24;7.50;99.90
1704;DHT22;849;48.780;9.216;2024-02-14T04:25:08;7.50;99.90
1704;DHT22;849;48.780;9.216;2024-02-14T04:27:52;7.50;99.90
1704;DHT22;849;48.780;9.216;2024-02-14T04:30:36;8.00;99.90
1704;DHT22;849;48.780;9.216;2024-02-14T04:33:21;7.60;99.90
1704;DHT22;849;48.780;9.216;2024-02-14T04:36:06;7.60;99.90
1704;DHT22;849;48.780;9.216;2024-02-14T04:38:50;7.70;99.90
1704;DHT22;849;48.780;9.216;2024-02-14T04:41:35;7.70;99.90
1704;DHT22;849;48.780;9.216;2024-02-14T04:44:21;7.70;99.90
1704;DHT22;849;48.780;9.216;2024-02-14T04:47:05;7.70;99.90
1704;DHT22;849;48.780;9.216;2024-02-14T04:49:49;7.80;99.90
1704;DHT22;849;48.780;9.216;2024-02-14T04:52:35;7.80;99.90
1704;DHT22;849;48.780;9.216;2024-02-14T04:55:19;7.80;99.90
1704;DHT22;849;48.780;9.216;2024-02-14T04:58:03;7.80;99.90
1704;DHT22;849;48.780;9.216;2024-02-14T05:00:49;7.80;99.90
1704;DHT22;849;48.780;9.216;2024-02-14T05:03:33;7.80;99.90
1704;DHT22;849;48.780;9.216;2024-02-14T05:06:17;7.80;99.90
1704;DHT22;849;48.780;9.216;2024-02-14T05:09:02;7.90;99.90
1704;DHT22;849;48.780;9.216;2024-02-14T05:11:46;7.90;99.90
1704;DHT22;849;48.780;9.216;2024-02-14T05:14:30;7.90;99.90
1704;DHT22;849;48.780;9.216;2024-02-14T05:17:15;7.90;99.90
1704;DHT22;849;48.780;9.216;2024-02-14T05:19:59;7.90;99.90
1704;DHT22;849;48.780;9.216;2024-02-14T05:22:44;7.80;99.90
1704;DHT22;849;48.780;9.216;2024-02-14T05:25:28;7.80;99.90
1704;DHT22;849;48.780;9.216;2024-02-14T05:28:13;7.90;99.90
1704;DHT22;849;48.780;9.216;2024-02-14T05:30:59;8.00;99.90
1704;DHT22;849;48.780;9.216;2024-02-14T05:33:44;8.00;99.90
1704;DHT22;849;48.780;9.216;2024-02-14T05:36:27;8.10;99.90
1704;DHT22;849;48.780;9.216;2024-02-14T05:39:12;8.10;99.90
1704;DHT22;849;48.780;9.216;2024-02-14T05:41:58;8.20;99.90
1704;DHT22;849;48.780;9.216;2024-02-14T05:44:42;8.30;99.90
1704;DHT22;849;48.780;9.216;2024-02-14T05:47:29;8.30;99.90
1704;DHT22;849;48.780;9.216;2024-02-14T05:50:14;8.20;99.90
1704;DHT22;849;48.780;9.216;2024-02-14T05:52:59;8.30;99.90
1704;DHT22;849;48.780;9.216;2024-02-14T05:55:43;8.30;99.90
1704;DHT22;849;48.780;9.216;2024-02-14T05:58:28;8.20;99.90
1704;DHT22;849;48.780;9.216;2024-02-14T06:01:12;8.20;99.90
1704;DHT22;849;48.780;9.216;2024-02-14T06:03:56;8.20;99.90
1704;DHT22;849;48.780;9.216;2024-02-14T06:06:40;8.30;99.90
1704;DHT22;849;48.780;9.216;2024-02-14T06:09:25;8.30;99.90
1704;DHT22;849;48.780;9.216;2024-02-14T06:12:09;8.30;99.90
1704;DHT22;849;48.780;9.216;2024-02-14T06:14:53;8.30;99.90
1704;DHT22;849;48.780;9.216;2024-02-14T06:17:37;8.30;99.90
1704;DHT22;849;48.780;9.216;2024-02-14T06:20:21;8.20;99.90
1704;DHT22;849;48.780;9.216;2024-02-14T06:23:07;8.10;99.90
1704;DHT22;849;48.780;9.216;2024-02-14T06:25:51;8.10;99.90
1704;DHT22;849;48.780;9.216;2024-02-14T06:28:37;8.10;99.90
1704;DHT22;849;48.780;9.216;2024-02-14T06:31:22;8.20;99.90
1704;DHT22;849;48.780;9.216;2024-02-14T06:34:06;8.00;99.90
1704;DHT22;849;48.780;9.216;2024-02-14T06:36:52;8.00;99.90
1704;DHT22;849;48.780;9.216;2024-02-14T06:39:37;8.00;99.90
1704;DHT22;849;48.780;9.216;2024-02-14T06:42:21;8.10;99.90
1704;DHT22;849;48.780;9.216;2024-02-14T06:45:06;8.10;99.90
1704;DHT22;849;48.780;9.216;2024-02-14T06:47:51;8.10;99.90
1704;DHT22;849;48.780;9.216;2024-02-14T06:50:35;8.10;99.90
1704;DHT22;849;48.780;9.216;2024-02-14T06:53:19;8.10;99.90
1704;DHT22;849;48.780;9.216;2024-02-14T06:56:03;8.10;99.90
1704;DHT22;849;48.780;9.216;2024-02-14T06:58:48;8.10;99.90
1704;DHT22;849;48.780;9.216;2024-02-14T07:01:37;8.20;99.90
1704;DHT22;849;48.780;9.216;2024-02-14T07:04:22;8.20;99.90
1704;DHT22;849;48.780;9.216;2024-02-14T07:07:09;8.20;99.90
1704;DHT22;849;48.780;9.216;2024-02-14T07:09:53;8.30;99.90
1704;DHT22;849;48.780;9.216;2024-02-14T07:12:38;8.30;99.90
1704;DHT22;849;48.780;9.216;2024-02-14T07:15:22;8.30;99.90
1704;DHT22;849;48.780;9.216;2024-02-14T07:18:09;8.20;99.90
1704;DHT22;849;48.780;9.216;2024-02-14T07:20:53;8.30;99.90
1704;DHT22;849;48.780;9.216;2024-02-14T07:23:37;8.40;99.90
1704;DHT22;849;48.780;9.216;2024-02-14T07:26:22;8.30;99.90
1704;DHT22;849;48.780;9.216;2024-02-14T07:29:06;8.40;99.90
1704;DHT22;849;48.780;9.216;2024-02-14T07:31:50;8.50;99.90
1704;DHT22;849;48.780;9.216;2024-02-14T07:34:33;8.50;99.90
1704;DHT22;849;48.780;9.216;2024-02-14T07:37:17;8.60;99.90
1704;DHT22;849;48.780;9.216;2024-02-14T07:40:04;8.70;99.90
1704;DHT22;849;48.780;9.216;2024-02-14T07:42:49;8.70;99.90
1704;DHT22;849;48.780;9.216;2024-02-14T07:45:33;8.70;99.90
1704;DHT22;849;48.780;9.216;2024-02-14T07:48:17;8.80;99.90
1704;DHT22;849;48.780;9.216;2024-02-14T07:51:02;8.80;99.90
1704;DHT22;849;48.780;9.216;2024-02-14T07:53:46;8.90;99.90
1704;DHT22;849;48.780;9.216;2024-02-14T07:56:30;8.90;99.90
1704;DHT22;849;48.780;9.216;2024-02-14T07:59:15;8.90;99.90
1704;DHT22;849;48.780;9.216;2024-02-14T08:02:00;8.90;99.90
1704;DHT22;849;48.780;9.216;2024-02-14T08:04:44;9.00;99.90
1704;DHT22;849;48.780;9.216;2024-02-14T08:07:29;9.00;99.90
1704;DHT22;849;48.780;9.216;2024-02-14T08:10:14;9.10;99.90
1704;DHT22;849;48.780;9.216;2024-02-14T08:12:58;9.10;99.90
1704;DHT22;849;48.780;9.216;2024-02-14T08:15:42;9.20;99.90
1704;DHT22;849;48.780;9.216;2024-02-14T08:18:27;9.20;99.90
1704;DHT22;849;48.780;9.216;2024-02-14T08:21:11;9.30;99.90
1704;DHT22;849;48.780;9.216;2024-02-14T08:23:56;9.30;99.90
1704;DHT22;849;48.780;9.216;2024-02-14T08:26:40;9.40;99.90
1704;DHT22;849;48.780;9.216;2024-02-14T08:29:24;9.40;99.90
1704;DHT22;849;48.780;9.216;2024-02-14T08:32:08;9.40;99.90
1704;DHT22;849;48.780;9.216;2024-02-14T08:34:52;9.50;99.90
1704;DHT22;849;48.780;9.216;2024-02-14T08:37:36;9.50;99.90
1704;DHT22;849;48.780;9.216;2024-02-14T08:40:22;9.60;99.90
1704;DHT22;849;48.780;9.216;2024-02-14T08:43:06;9.60;99.90
1704;DHT22;849;48.780;9.216;2024-02-14T08:45:51;9.70;99.90
1704;DHT22;849;48.780;9.216;2024-02-14T08:48:35;9.80;99.90
1704;DHT22;849;48.780;9.216;2024-02-14T08:51:19;9.80;99.90
1704;DHT22;849;48.780;9.216;2024-02-14T08:54:04;9.90;99.90
1704;DHT22;849;48.780;9.216;2024-02-14T08:56:50;10.00;99.90
1704;DHT22;849;48.780;9.216;2024-02-14T08:59:36;10.00;99.90
1704;DHT22;849;48.780;9.216;2024-02-14T09:02:20;10.10;99.90
1704;DHT22;849;48.780;9.216;2024-02-14T09:05:06;10.20;99.90
1704;DHT22;849;48.780;9.216;2024-02-14T09:07:51;10.20;99.90
1704;DHT22;849;48.780;9.216;2024-02-14T09:10:36;10.30;99.90
1704;DHT22;849;48.780;9.216;2024-02-14T09:13:20;10.30;99.90
1704;DHT22;849;48.780;9.216;2024-02-14T09:16:04;10.30;99.90
1704;DHT22;849;48.780;9.216;2024-02-14T09:18:49;10.40;99.90
1704;DHT22;849;48.780;9.216;2024-02-14T09:21:33;10.40;99.90
1704;DHT22;849;48.780;9.216;2024-02-14T09:24:19;10.50;99.90
1704;DHT22;849;48.780;9.216;2024-02-14T09:27:03;10.50;99.90
1704;DHT22;849;48.780;9.216;2024-02-14T09:29:49;10.50;99.90
1704;DHT22;849;48.780;9.216;2024-02-14T09:32:33;10.50;99.90
1704;DHT22;849;48.780;9.216;2024-02-14T09:35:18;10.50;99.90
1704;DHT22;849;48.780;9.216;2024-02-14T09:38:02;10.60;99.90
1704;DHT22;849;48.780;9.216;2024-02-14T09:40:46;10.60;99.90
1704;DHT22;849;48.780;9.216;2024-02-14T09:43:40;10.60;99.90
1704;DHT22;849;48.780;9.216;2024-02-14T09:46:27;10.70;99.90
1704;DHT22;849;48.780;9.216;2024-02-14T09:49:14;10.80;99.90
1704;DHT22;849;48.780;9.216;2024-02-14T09:52:01;10.90;99.90
1704;DHT22;849;48.780;9.216;2024-02-14T09:54:46;10.90;99.90
1704;DHT22;849;48.780;9.216;2024-02-14T09:57:30;11.00;99.90
1704;DHT22;849;48.780;9.216;2024-02-14T10:00:16;11.10;99.90
1704;DHT22;849;48.780;9.216;2024-02-14T10:03:00;11.20;99.90
1704;DHT22;849;48.780;9.216;2024-02-14T10:05:44;11.20;99.90
1704;DHT22;849;48.780;9.216;2024-02-14T10:08:28;11.30;99.90
1704;DHT22;849;48.780;9.216;2024-02-14T10:11:12;11.60;99.90
1704;DHT22;849;48.780;9.216;2024-02-14T10:13:59;11.50;99.90
1704;DHT22;849;48.780;9.216;2024-02-14T10:16:46;11.50;99.90
1704;DHT22;849;48.780;9.216;2024-02-14T10:19:31;11.60;99.90
1704;DHT22;849;48.780;9.216;2024-02-14T10:22:15;11.70;99.90
1704;DHT22;849;48.780;9.216;2024-02-14T10:24:59;11.80;99.90
1704;DHT22;849;48.780;9.216;2024-02-14T10:27:43;11.70;99.90
1704;DHT22;849;48.780;9.216;2024-02-14T10:30:27;11.70;99.90
1704;DHT22;849;48.780;9.216;2024-02-14T10:33:12;11.80;99.90
1704;DHT22;849;48.780;9.216;2024-02-14T10:35:56;11.80;99.90
1704;DHT22;849;48.780;9.216;2024-02-14T10:38:41;11.90;99.90
1704;DHT22;849;48.780;9.216;2024-02-14T10:41:25;11.90;99.90
1704;DHT22;849;48.780;9.216;2024-02-14T10:44:10;12.00;99.90
1704;DHT22;849;48.780;9.216;2024-02-14T10:46:56;12.00;99.90
1704;DHT22;849;48.780;9.216;2024-02-14T10:49:43;12.10;99.90
1704;DHT22;849;48.780;9.216;2024-02-14T10:52:30;12.20;99.90
1704;DHT22;849;48.780;9.216;2024-02-14T10:55:15;12.20;99.90
1704;DHT22;849;48.780;9.216;2024-02-14T10:58:00;12.30;99.90
1704;DHT22;849;48.780;9.216;2024-02-14T11:00:46;12.40;99.90
1704;DHT22;849;48.780;9.216;2024-02-14T11:03:31;12.50;99.90
1704;DHT22;849;48.780;9.216;2024-02-14T11:06:16;12.50;99.90
1704;DHT22;849;48.780;9.216;2024-02-14T11:09:01;13.00;99.90
1704;DHT22;849;48.780;9.216;2024-02-14T11:11:58;12.70;99.90
1704;DHT22;849;48.780;9.216;2024-02-14T11:14:42;12.80;99.90
1704;DHT22;849;48.780;9.216;2024-02-14T11:17:27;12.90;99.90
1704;DHT22;849;48.780;9.216;2024-02-14T11:20:21;13.00;99.90
1704;DHT22;849;48.780;9.216;2024-02-14T11:23:20;13.10;99.90
1704;DHT22;849;48.780;9.216;2024-02-14T11:26:05;13.00;99.90
1704;DHT22;849;48.780;9.216;2024-02-14T11:28:59;12.90;99.90
1704;DHT22;849;48.780;9.216;2024-02-14T11:31:46;13.10;99.90
1704;DHT22;849;48.780;9.216;2024-02-14T11:34:32;13.10;99.90
1704;DHT22;849;48.780;9.216;2024-02-14T11:37:19;13.20;99.90
1704;DHT22;849;48.780;9.216;2024-02-14T11:40:04;13.40;99.90
1704;DHT22;849;48.780;9.216;2024-02-14T11:42:51;13.30;99.90
1704;DHT22;849;48.780;9.216;2024-02-14T11:45:35;13.30;99.90
1704;DHT22;849;48.780;9.216;2024-02-14T11:48:23;13.40;99.90
1704;DHT22;849;48.780;9.216;2024-02-14T11:51:10;13.30;99.90
1704;DHT22;849;48.780;9.216;2024-02-14T11:53:54;13.40;99.90
1704;DHT22;849;48.780;9.216;2024-02-14T11:56:38;13.40;99.90
1704;DHT22;849;48.780;9.216;2024-02-14T11:59:22;13.50;99.90
1704;DHT22;849;48.780;9.216;2024-02-14T12:02:07;13.40;99.90
1704;DHT22;849;48.780;9.216;2024-02-14T12:04:51;13.50;99.90
1704;DHT22;849;48.780;9.216;2024-02-14T12:07:37;13.50;99.90
1704;DHT22;849;48.780;9.216;2024-02-14T12:10:22;13.50;99.90
1704;DHT22;849;48.780;9.216;2024-02-14T12:13:10;13.50;99.90
1704;DHT22;849;48.780;9.216;2024-02-14T12:15:55;13.60;99.90
1704;DHT22;849;48.780;9.216;2024-02-14T12:18:39;13.50;99.90
1704;DHT22;849;48.780;9.216;2024-02-14T12:21:24;13.50;99.90
1704;DHT22;849;48.780;9.216;2024-02-14T12:24:11;13.60;99.90
1704;DHT22;849;48.780;9.216;2024-02-14T12:26:57;13.70;99.90
1704;DHT22;849;48.780;9.216;2024-02-14T12:29:41;13.80;99.90
1704;DHT22;849;48.780;9.216;2024-02-14T12:32:29;14.00;99.90
1704;DHT22;849;48.780;9.216;2024-02-14T12:35:13;14.00;99.90
1704;DHT22;849;48.780;9.216;2024-02-14T12:37:57;13.70;99.90
1704;DHT22;849;48.780;9.216;2024-02-14T12:40:41;13.80;99.90
1704;DHT22;849;48.780;9.216;2024-02-14T12:43:25;13.90;99.90
1704;DHT22;849;48.780;9.216;2024-02-14T12:46:10;14.00;99.90
1704;DHT22;849;48.780;9.216;2024-02-14T12:48:54;14.10;99.90
1704;DHT22;849;48.780;9.216;2024-02-14T12:51:38;14.00;99.90
1704;DHT22;849;48.780;9.216;2024-02-14T12:54:22;14.10;99.90
1704;DHT22;849;48.780;9.216;2024-02-14T12:57:07;14.20;99.90
1704;DHT22;849;48.780;9.216;2024-02-14T12:59:51;14.20;99.90
1704;DHT22;849;48.780;9.216;2024-02-14T13:02:36;14.30;99.90
1704;DHT22;849;48.780;9.216;2024-02-14T13:05:21;14.50;99.90
1704;DHT22;849;48.780;9.216;2024-02-14T13:08:05;14.60;99.90
1704;DHT22;849;48.780;9.216;2024-02-14T13:10:49;14.70;99.90
1704;DHT22;849;48.780;9.216;2024-02-14T13:13:34;14.70;99.90
1704;DHT22;849;48.780;9.216;2024-02-14T13:16:18;14.70;99.90
1704;DHT22;849;48.780;9.216;2024-02-14T13:19:03;14.80;99.90
1704;DHT22;849;48.780;9.216;2024-02-14T13:21:49;14.80;99.90
1704;DHT22;849;48.780;9.216;2024-02-14T13:24:33;14.80;99.90
1704;DHT22;849;48.780;9.216;2024-02-14T13:27:17;14.80;99.90
1704;DHT22;849;48.780;9.216;2024-02-14T13:30:01;14.90;99.90
1704;DHT22;849;48.780;9.216;2024-02-14T13:32:46;14.90;99.90
1704;DHT22;849;48.780;9.216;2024-02-14T13:35:30;14.90;99.90
1704;DHT22;849;48.780;9.216;2024-02-14T13:38:15;14.90;99.90
1704;DHT22;849;48.780;9.216;2024-02-14T13:41:01;15.00;99.90
1704;DHT22;849;48.780;9.216;2024-02-14T13:43:45;15.00;99.90
1704;DHT22;849;48.780;9.216;2024-02-14T13:46:29;15.30;99.90
1704;DHT22;849;48.780;9.216;2024-02-14T13:49:13;15.10;99.90
1704;DHT22;849;48.780;9.216;2024-02-14T13:52:01;15.10;99.90
1704;DHT22;849;48.780;9.216;2024-02-14T13:54:45;15.00;99.90
1704;DHT22;849;48.780;9.216;2024-02-14T13:57:29;15.00;99.90
1704;DHT22;849;48.780;9.216;2024-02-14T14:00:13;15.00;99.90
1704;DHT22;849;48.780;9.216;2024-02-14T14:02:58;15.10;99.90
1704;DHT22;849;48.780;9.216;2024-02-14T14:05:42;15.20;99.90
1704;DHT22;849;48.780;9.216;2024-02-14T14:08:27;15.20;99.90
1704;DHT22;849;48.780;9.216;2024-02-14T14:11:11;15.20;99.90
1704;DHT22;849;48.780;9.216;2024-02-14T14:13:55;15.20;99.90
1704;DHT22;849;48.780;9.216;2024-02-14T14:16:39;15.20;99.90
1704;DHT22;849;48.780;9.216;2024-02-14T14:19:23;15.10;99.90
1704;DHT22;849;48.780;9.216;2024-02-14T14:22:08;15.10;99.90
1704;DHT22;849;48.780;9.216;2024-02-14T14:24:53;15.10;99.90
1704;DHT22;849;48.780;9.216;2024-02-14T14:27:37;15.30;99.90
1704;DHT22;849;48.780;9.216;2024-02-14T14:30:21;15.10;99.90
1704;DHT22;849;48.780;9.216;2024-02-14T14:33:06;15.20;99.90
1704;DHT22;849;48.780;9.216;2024-02-14T14:35:51;15.10;99.90
1704;DHT22;849;48.780;9.216;2024-02-14T14:38:37;15.10;99.90
1704;DHT22;849;48.780;9.216;2024-02-14T14:41:24;15.00;99.90
1704;DHT22;849;48.780;9.216;2024-02-14T14:44:08;15.00;99.90
1704;DHT22;849;48.780;9.216;2024-02-14T14:46:53;15.00;99.90
1704;DHT22;849;48.780;9.216;2024-02-14T14:49:37;15.00;99.90
1704;DHT22;849;48.780;9.216;2024-02-14T14:52:22;15.00;99.90
1704;DHT22;849;48.780;9.216;2024-02-14T14:55:06;15.10;99.90
1704;DHT22;849;48.780;9.216;2024-02-14T14:57:50;15.00;99.90
1704;DHT22;849;48.780;9.216;2024-02-14T15:00:35;15.10;99.90
1704;DHT22;849;48.780;9.216;2024-02-14T15:03:19;15.10;99.90
1704;DHT22;849;48.780;9.216;2024-02-14T15:06:03;15.10;99.90
1704;DHT22;849;48.780;9.216;2024-02-14T15:08:47;15.10;99.90
1704;DHT22;849;48.780;9.216;2024-02-14T15:11:32;15.10;99.90
1704;DHT22;849;48.780;9.216;2024-02-14T15:14:16;15.10;99.90
1704;DHT22;849;48.780;9.216;2024-02-14T15:17:01;15.00;99.90
1704;DHT22;849;48.780;9.216;2024-02-14T15:19:46;15.00;99.90
1704;DHT22;849;48.780;9.216;2024-02-14T15:22:30;14.90;99.90
1704;DHT22;849;48.780;9.216;2024-02-14T15:25:14;15.00;99.90
1704;DHT22;849;48.780;9.216;2024-02-14T15:27:58;15.00;99.90
1704;DHT22;849;48.780;9.216;2024-02-14T15:30:42;15.20;99.90
1704;DHT22;849;48.780;9.216;2024-02-14T15:33:45;15.20;99.90
1704;DHT22;849;48.780;9.216;2024-02-14T15:36:30;15.30;99.90
1704;DHT22;849;48.780;9.216;2024-02-14T15:39:14;15.20;99.90
1704;DHT22;849;48.780;9.216;2024-02-14T15:41:58;15.20;99.90
1704;DHT22;849;48.780;9.216;2024-02-14T15:44:42;15.30;99.90
1704;DHT22;849;48.780;9.216;2024-02-14T15:47:26;15.70;99.90
1704;DHT22;849;48.780;9.216;2024-02-14T15:50:11;15.30;99.90
1704;DHT22;849;48.780;9.216;2024-02-14T15:52:55;15.50;99.90
1704;DHT22;849;48.780;9.216;2024-02-14T15:55:40;15.30;99.90
1704;DHT22;849;48.780;9.216;2024-02-14T15:58:24;15.10;99.90
1704;DHT22;849;48.780;9.216;2024-02-14T16:01:10;15.20;99.90
1704;DHT22;849;48.780;9.216;2024-02-14T16:03:54;15.10;99.90
1704;DHT22;849;48.780;9.216;2024-02-14T16:06:38;15.10;99.90
1704;DHT22;849;48.780;9.216;2024-02-14T16:09:22;15.10;99.90
1704;DHT22;849;48.780;9.216;2024-02-14T16:12:06;15.10;99.90
1704;DHT22;849;48.780;9.216;2024-02-14T16:14:51;15.10;99.90
1704;DHT22;849;48.780;9.216;2024-02-14T16:17:35;15.10;99.90
1704;DHT22;849;48.780;9.216;2024-02-14T16:20:20;15.00;99.90
1704;DHT22;849;48.780;9.216;2024-02-14T16:23:04;15.00;99.90
1704;DHT22;849;48.780;9.216;2024-02-14T16:25:49;15.00;99.90
1704;DHT22;849;48.780;9.216;2024-02-14T16:28:34;15.00;99.90
1704;DHT22;849;48.780;9.216;2024-02-14T16:31:18;15.00;99.90
1704;DHT22;849;48.780;9.216;2024-02-14T16:34:02;15.10;99.90
1704;DHT22;849;48.780;9.216;2024-02-14T16:36:47;15.10;99.90
1704;DHT22;849;48.780;9.216;2024-02-14T16:39:31;15.10;99.90
1704;DHT22;849;48.780;9.216;2024-02-14T16:42:16;15.10;99.90
1704;DHT22;849;48.780;9.216;2024-02-14T16:45:00;15.10;99.90
1704;DHT22;849;48.780;9.216;2024-02-14T16:47:48;15.10;99.90
1704;DHT22;849;48.780;9.216;2024-02-14T16:50:32;15.10;99.90
1704;DHT22;849;48.780;9.216;2024-02-14T16:53:16;15.10;99.90
1704;DHT22;849;48.780;9.216;2024-02-14T16:56:00;15.10;99.90
1704;DHT22;849;48.780;9.216;2024-02-14T16:58:45;15.10;99.90
1704;DHT22;849;48.780;9.216;2024-02-14T17:01:29;15.00;99.90
1704;DHT22;849;48.780;9.216;2024-02-14T17:04:13;15.00;99.90
1704;DHT22;849;48.780;9.216;2024-02-14T17:06:58;14.90;99.90
1704;DHT22;849;48.780;9.216;2024-02-14T17:09:42;14.90;99.90
1704;DHT22;849;48.780;9.216;2024-02-14T17:12:26;14.90;99.90
1704;DHT22;849;48.780;9.216;2024-02-14T17:15:11;14.90;99.90
1704;DHT22;849;48.780;9.216;2024-02-14T17:17:55;14.80;99.90
1704;DHT22;849;48.780;9.216;2024-02-14T17:20:40;14.90;99.90
1704;DHT22;849;48.780;9.216;2024-02-14T17:23:26;14.90;99.90
1704;DHT22;849;48.780;9.216;2024-02-14T17:26:10;14.80;99.90
1704;DHT22;849;48.780;9.216;2024-02-14T17:28:54;14.80;99.90
1704;DHT22;849;48.780;9.216;2024-02-14T17:31:39;14.80;99.90
1704;DHT22;849;48.780;9.216;2024-02-14T17:34:23;14.80;99.90
1704;DHT22;849;48.780;9.216;2024-02-14T17:37:14;14.80;99.90
1704;DHT22;849;48.780;9.216;2024-02-14T17:39:58;14.90;99.90
1704;DHT22;849;48.780;9.216;2024-02-14T17:42:43;14.90;99.90
1704;DHT22;849;48.780;9.216;2024-02-14T17:45:27;14.80;99.90
1704;DHT22;849;48.780;9.216;2024-02-14T17:48:11;15.10;99.90
1704;DHT22;849;48.780;9.216;2024-02-14T17:50:55;14.80;99.90
1704;DHT22;849;48.780;9.216;2024-02-14T17:53:40;14.70;99.90
1704;DHT22;849;48.780;9.216;2024-02-14T17:56:24;14.70;99.90
1704;DHT22;849;48.780;9.216;2024-02-14T17:59:08;14.60;99.90
1704;DHT22;849;48.780;9.216;2024-02-14T18:01:52;14.60;99.90
1704;DHT22;849;48.780;9.216;2024-02-14T18:04:37;14.60;99.90
1704;DHT22;849;48.780;9.216;2024-02-14T18:07:21;14.70;99.90
1704;DHT22;849;48.780;9.216;2024-02-14T18:10:05;14.70;99.90
1704;DHT22;849;48.780;9.216;2024-02-14T18:12:50;14.70;99.90
1704;DHT22;849;48.780;9.216;2024-02-14T18:15:34;14.70;99.90
1704;DHT22;849;48.780;9.216;2024-02-14T18:18:18;14.70;99.90
1704;DHT22;849;48.780;9.216;2024-02-14T18:21:04;14.70;99.90
1704;DHT22;849;48.780;9.216;2024-02-14T18:23:48;14.70;99.90